Time;durP1;ratioP1;P1;durP2;ratioP2;P2;SDS_P1;SDS_P2;PMS_P1;PMS_P2;Temp;Humidity;BMP_temperature;BMP_pressure;BME280_temperature;BME280_humidity;BME280_pressure;Samples;Min_cycle;Max_cycle;Signal;HPM_P1;HPM_P2
2022/06/19 00:00:49;;;;;;;172.45;113.15;;;;;;;22.12;47.19;96129.09;2066787;28;20217;-55
2022/06/19 00:01:51;;;;;;;169.63;106.07;;;;;;;22.16;46.90;96133.09;2068504;28;20202;-55
2022/06/19 00:02:53;;;;;;;179.27;109.68;;;;;;;22.09;46.91;96121.41;2066567;28;20220;-55
2022/06/19 00:03:55;;;;;;;181.57;113.10;;;;;;;22.04;46.84;96123.69;2067735;28;20201;-55
2022/06/19 00:04:57;;;;;;;179.77;111.05;;;;;;;22.11;46.93;96124.75;2064295;28;20638;-55
2022/06/19 00:06:00;;;;;;;179.82;106.97;;;;;;;22.07;46.81;96108.28;2064258;28;20252;-55
2022/06/19 00:07:01;;;;;;;180.93;109.30;;;;;;;22.11;47.00;96117.59;2065743;28;20194;-55
2022/06/19 00:08:03;;;;;;;175.85;108.68;;;;;;;22.11;46.85;96120.25;2067862;28;20209;-55
2022/06/19 00:09:05;;;;;;;180.68;117.63;;;;;;;22.10;46.76;96113.25;2064104;28;20205;-55
2022/06/19 00:10:08;;;;;;;174.32;103.38;;;;;;;22.17;46.37;96116.16;2064122;28;20213;-55
2022/06/19 00:11:14;;;;;;;174.45;107.60;;;;;;;22.12;46.66;96113.13;2065916;28;20201;-55
2022/06/19 00:12:17;;;;;;;168.95;112.57;;;;;;;22.12;46.71;96099.84;2063652;28;20311;-55
2022/06/19 00:13:19;;;;;;;173.25;101.97;;;;;;;22.02;47.26;96107.91;2063954;28;20194;-56
2022/06/19 00:14:21;;;;;;;175.25;108.30;;;;;;;22.10;47.23;96123.06;2069012;28;20199;-55
2022/06/19 00:15:23;;;;;;;174.55;99.13;;;;;;;21.96;47.12;96108.50;2068580;28;20556;-55
2022/06/19 00:16:24;;;;;;;176.77;112.35;;;;;;;21.92;47.69;96110.63;2067790;28;20202;-55
2022/06/19 00:17:26;;;;;;;184.60;115.57;;;;;;;21.77;47.67;96109.50;2068682;28;20237;-56
2022/06/19 00:18:27;;;;;;;173.30;105.47;;;;;;;21.71;47.52;96118.06;2067524;28;20205;-55
2022/06/19 00:19:29;;;;;;;183.13;104.63;;;;;;;21.81;47.12;96116.16;2067248;28;20206;-56
2022/06/19 00:20:31;;;;;;;177.82;105.63;;;;;;;21.87;47.47;96109.44;2064052;28;20222;-55
2022/06/19 00:21:32;;;;;;;181.20;107.60;;;;;;;21.80;47.78;96106.50;2064006;28;20573;-55
2022/06/19 00:22:34;;;;;;;184.35;108.32;;;;;;;21.89;48.14;96112.75;2064625;28;20486;-55
2022/06/19 00:23:36;;;;;;;174.32;108.45;;;;;;;21.84;47.87;96105.25;2066016;28;20197;-55
2022/06/19 00:24:37;;;;;;;160.85;101.85;;;;;;;21.85;48.05;96112.22;2067056;28;20190;-55
2022/06/19 00:25:39;;;;;;;183.65;114.60;;;;;;;21.81;48.44;96109.03;2066299;28;20202;-55
2022/06/19 00:26:41;;;;;;;180.40;113.35;;;;;;;21.76;49.10;96110.47;2067638;28;20206;-55
2022/06/19 00:27:43;;;;;;;167.70;103.10;;;;;;;21.73;48.62;96106.28;2067874;28;20822;-55
2022/06/19 00:28:47;;;;;;;173.27;102.78;;;;;;;21.66;48.88;96102.56;2066671;28;20223;-56
2022/06/19 00:29:48;;;;;;;167.98;98.10;;;;;;;21.73;48.30;96095.66;2066758;28;20196;-55
2022/06/19 00:30:49;;;;;;;174.93;109.80;;;;;;;21.77;48.40;96098.88;2067765;28;20712;-55
2022/06/19 00:31:51;;;;;;;172.23;110.18;;;;;;;21.61;48.82;96102.19;2067484;28;20198;-55
2022/06/19 00:32:53;;;;;;;169.35;104.43;;;;;;;21.52;49.07;96102.09;2066500;28;20221;-55
2022/06/19 00:33:55;;;;;;;187.52;108.00;;;;;;;21.55;48.69;96098.31;2067507;28;20210;-56
2022/06/19 00:34:56;;;;;;;170.45;117.75;;;;;;;21.62;48.20;96091.44;2069468;28;20205;-56
2022/06/19 00:35:58;;;;;;;172.70;106.35;;;;;;;21.66;48.09;96089.28;2063835;28;20545;-56
2022/06/19 00:37:01;;;;;;;171.80;107.05;;;;;;;21.67;48.21;96093.63;2063251;28;20210;-55
2022/06/19 00:38:02;;;;;;;174.10;101.13;;;;;;;21.66;47.49;96076.84;2067482;28;20712;-55
2022/06/19 00:39:06;;;;;;;178.25;105.55;;;;;;;21.79;47.52;96087.09;2066894;28;20197;-55
2022/06/19 00:40:11;;;;;;;174.75;109.40;;;;;;;21.82;47.58;96093.94;2066988;28;20554;-55
2022/06/19 00:41:13;;;;;;;174.77;104.07;;;;;;;21.72;47.95;96074.56;2067228;28;20203;-55
2022/06/19 00:42:15;;;;;;;172.35;93.25;;;;;;;21.62;48.29;96078.16;2067972;28;20384;-55
2022/06/19 00:43:16;;;;;;;210.10;161.13;;;;;;;21.51;48.85;96084.47;2063778;28;20194;-55
2022/06/19 00:44:18;;;;;;;211.48;160.40;;;;;;;21.49;48.72;96080.28;2063801;28;20213;-55
2022/06/19 00:45:49;;;;;;;184.50;113.30;;;;;;;21.52;48.09;96070.22;2064881;28;20205;-55
2022/06/19 00:46:53;;;;;;;167.25;94.57;;;;;;;21.44;47.50;96040.91;2066958;28;20198;-55
2022/06/19 00:47:55;;;;;;;170.20;85.88;;;;;;;21.67;47.33;96067.91;2058678;28;20245;-56
2022/06/19 00:48:57;;;;;;;163.27;99.60;;;;;;;21.78;46.93;96069.47;2069771;28;20787;-56
2022/06/19 00:50:16;;;;;;;189.73;118.57;;;;;;;21.92;46.24;96070.75;2063697;28;20209;-56
2022/06/19 00:51:18;;;;;;;169.10;91.18;;;;;;;21.88;46.17;96058.78;2063571;28;20202;-56
2022/06/19 00:52:22;;;;;;;169.15;99.93;;;;;;;21.92;46.38;96069.94;2069508;28;20229;-55
2022/06/19 00:53:45;;;;;;;169.10;89.55;;;;;;;21.90;46.24;96064.75;2068979;28;20574;-55
2022/06/19 00:55:19;;;;;;;163.45;75.70;;;;;;;22.02;45.99;96060.06;2067474;28;20194;-56
2022/06/19 00:56:20;;;;;;;160.32;84.03;;;;;;;22.11;45.18;96058.28;2067697;28;20210;-56
2022/06/19 00:57:24;;;;;;;163.43;94.50;;;;;;;22.19;45.44;96061.00;2069022;28;20225;-56
2022/06/19 00:58:30;;;;;;;172.00;101.93;;;;;;;22.20;45.11;96053.88;2063678;28;20213;-55
2022/06/19 00:59:32;;;;;;;174.35;99.93;;;;;;;22.22;45.25;96062.50;2067320;28;20198;-55
2022/06/19 01:00:34;;;;;;;176.93;111.97;;;;;;;22.24;45.23;96057.88;2066750;28;20194;-55
2022/06/19 01:01:36;;;;;;;175.25;111.20;;;;;;;22.17;45.23;96050.53;2066257;28;20591;-56
2022/06/19 01:02:40;;;;;;;175.90;110.10;;;;;;;22.10;45.41;96044.16;2065404;28;20241;-56
2022/06/19 01:04:04;;;;;;;183.60;126.88;;;;;;;21.76;45.29;95982.94;2067236;28;20440;-56
2022/06/19 01:05:07;;;;;;;174.73;96.75;;;;;;;22.26;45.44;96059.41;2068734;28;20235;-55
2022/06/19 01:06:10;;;;;;;181.15;105.15;;;;;;;22.16;45.59;96054.16;2068950;28;20202;-56
2022/06/19 01:07:11;;;;;;;167.68;100.10;;;;;;;22.14;45.98;96060.63;2069036;28;20206;-56
2022/06/19 01:08:13;;;;;;;176.10;107.25;;;;;;;22.13;45.69;96059.81;2069227;28;20202;-56
2022/06/19 01:09:15;;;;;;;176.27;110.43;;;;;;;22.15;45.58;96051.66;2068670;28;20198;-55
2022/06/19 01:10:18;;;;;;;163.75;102.68;;;;;;;22.14;45.45;96056.16;2067454;28;20209;-55
2022/06/19 01:11:21;;;;;;;173.80;105.38;;;;;;;22.14;45.68;96055.31;2066574;28;20200;-55
2022/06/19 01:12:25;;;;;;;166.75;104.15;;;;;;;22.16;45.66;96059.47;2067757;28;20229;-56
2022/06/19 01:13:29;;;;;;;189.13;124.03;;;;;;;22.15;45.20;96047.16;2066241;28;20201;-56
2022/06/19 01:14:31;;;;;;;177.38;105.80;;;;;;;22.18;45.59;96048.69;2068411;28;20665;-56
2022/06/19 01:15:33;;;;;;;174.82;105.45;;;;;;;22.13;45.47;96041.19;2067617;28;20574;-56
2022/06/19 01:16:35;;;;;;;173.05;97.47;;;;;;;22.14;45.25;96048.19;2067280;28;20210;-56
2022/06/19 01:17:39;;;;;;;176.95;98.97;;;;;;;22.20;45.17;96041.41;2066723;28;20219;-55
2022/06/19 01:18:40;;;;;;;177.18;109.07;;;;;;;22.20;45.31;96046.72;2064966;28;20199;-56
2022/06/19 01:19:44;;;;;;;174.25;104.82;;;;;;;22.31;45.09;96040.31;2063470;28;20194;-56
2022/06/19 01:20:46;;;;;;;173.88;117.65;;;;;;;22.38;44.60;96036.06;2066359;28;20642;-55
2022/06/19 01:21:55;;;;;;;178.57;123.05;;;;;;;22.45;44.44;96039.75;2065346;28;20716;-55
2022/06/19 01:23:15;;;;;;;178.98;124.63;;;;;;;22.41;44.54;96029.59;2064190;28;20221;-56
2022/06/19 01:24:43;;;;;;;177.50;113.57;;;;;;;22.43;44.43;96028.44;2066007;28;20198;-55
2022/06/19 01:25:45;;;;;;;166.38;98.75;;;;;;;22.47;44.18;96031.63;2064986;28;20571;-56
2022/06/19 01:26:49;;;;;;;169.52;94.38;;;;;;;22.33;44.78;96028.53;2064237;28;20202;-56
2022/06/19 01:29:19;;;;;;;160.50;89.53;;;;;;;22.34;44.96;96026.69;2065693;28;20678;-56
2022/06/19 01:30:22;;;;;;;186.45;120.28;;;;;;;22.31;44.85;96027.03;2065646;28;20639;-57
2022/06/19 01:31:40;;;;;;;209.60;151.77;;;;;;;22.45;44.33;96026.47;2066199;28;20201;-56
2022/06/19 01:32:45;;;;;;;174.85;116.68;;;;;;;22.41;44.63;96019.81;2067967;28;20233;-56
2022/06/19 01:33:51;;;;;;;169.85;98.93;;;;;;;22.30;44.89;96017.38;2069426;28;20196;-56
2022/06/19 01:34:53;;;;;;;168.85;106.15;;;;;;;22.32;45.23;96020.69;2067857;28;20202;-56
2022/06/19 01:35:56;;;;;;;181.25;117.25;;;;;;;22.25;44.93;96023.16;2068377;28;20214;-56
2022/06/19 01:37:00;;;;;;;169.80;112.20;;;;;;;22.05;45.47;95992.47;2067896;28;20202;-56
2022/06/19 01:38:12;;;;;;;210.55;155.93;;;;;;;22.25;44.71;96025.81;2063099;28;20222;-56
2022/06/19 01:39:14;;;;;;;183.63;106.03;;;;;;;22.22;45.43;96023.47;2063612;28;20511;-56
2022/06/19 01:40:20;;;;;;;167.88;99.18;;;;;;;22.14;45.74;96016.28;2064492;28;20205;-56
2022/06/19 01:41:27;;;;;;;178.65;115.70;;;;;;;22.14;45.61;96020.75;2070585;28;20197;-56
2022/06/19 01:42:30;;;;;;;172.90;93.07;;;;;;;21.93;45.77;96008.66;2066211;28;20226;-56
2022/06/19 01:43:33;;;;;;;175.15;101.65;;;;;;;21.90;45.74;96002.81;2068163;28;20206;-56
2022/06/19 01:44:35;;;;;;;169.00;95.47;;;;;;;21.94;45.65;96012.97;2070116;28;20193;-56
2022/06/19 01:45:43;;;;;;;159.25;88.10;;;;;;;21.96;45.78;96015.47;2064949;28;20898;-56
2022/06/19 01:46:45;;;;;;;180.18;96.13;;;;;;;21.98;45.48;96019.66;2063442;28;20672;-56
2022/06/19 01:47:47;;;;;;;170.13;96.75;;;;;;;21.83;45.75;95998.09;2063049;28;20237;-56
2022/06/19 01:48:48;;;;;;;173.45;98.68;;;;;;;21.99;45.41;96025.78;2064561;28;20201;-56
2022/06/19 01:49:53;;;;;;;164.88;98.00;;;;;;;22.00;45.44;96019.50;2065498;28;20196;-56
2022/06/19 01:50:57;;;;;;;184.10;103.65;;;;;;;21.99;45.83;96017.81;2067462;28;20245;-56
2022/06/19 01:51:59;;;;;;;172.95;93.38;;;;;;;21.97;45.67;96020.63;2067326;28;20769;-56
2022/06/19 01:53:10;;;;;;;172.43;80.03;;;;;;;21.90;45.58;96002.81;2063482;28;20825;-56
2022/06/19 01:54:18;;;;;;;169.27;82.18;;;;;;;22.00;45.47;96028.31;2063622;28;20208;-56
2022/06/19 01:55:21;;;;;;;174.57;88.47;;;;;;;21.98;45.32;96019.66;2066226;28;20195;-56
2022/06/19 01:56:23;;;;;;;183.13;117.72;;;;;;;21.98;45.75;96019.66;2067099;28;20766;-56
2022/06/19 01:57:25;;;;;;;179.25;99.25;;;;;;;21.97;45.42;96033.09;2067821;28;20776;-56
2022/06/19 01:58:31;;;;;;;200.68;125.63;;;;;;;21.81;45.93;96012.53;2068102;28;20561;-56
2022/06/19 01:59:34;;;;;;;164.63;92.63;;;;;;;21.89;46.01;96031.22;2069483;28;20205;-56
2022/06/19 02:00:37;;;;;;;163.07;89.35;;;;;;;21.84;46.03;96023.69;2069964;28;20205;-56
2022/06/19 02:01:43;;;;;;;171.77;78.80;;;;;;;21.83;45.85;96016.72;2070004;28;20201;-56
2022/06/19 02:02:51;;;;;;;177.15;102.05;;;;;;;21.90;45.67;96024.88;2063053;28;20222;-55
2022/06/19 02:03:56;;;;;;;174.93;103.53;;;;;;;21.95;45.59;96025.28;2064086;28;20202;-56
2022/06/19 02:04:58;;;;;;;189.82;114.28;;;;;;;22.09;45.04;96028.34;2067995;28;20613;-56
2022/06/19 02:05:59;;;;;;;168.20;95.85;;;;;;;22.09;45.03;96018.53;2068508;28;20205;-56
2022/06/19 02:07:12;;;;;;;170.57;98.75;;;;;;;22.11;44.84;96026.38;2070638;28;20573;-56
2022/06/19 02:08:16;;;;;;;147.88;67.38;;;;;;;22.20;44.33;96020.13;2066942;28;20194;-55
2022/06/19 02:09:19;;;;;;;161.48;75.80;;;;;;;22.22;44.55;96014.66;2067948;28;20194;-56
2022/06/19 02:10:21;;;;;;;164.80;77.93;;;;;;;22.17;44.40;96007.97;2067095;28;20198;-56
2022/06/19 02:11:23;;;;;;;170.73;77.07;;;;;;;22.18;44.37;96012.31;2069147;28;20229;-56
2022/06/19 02:12:27;;;;;;;171.40;84.43;;;;;;;22.23;44.38;96018.97;2069101;28;20224;-55
2022/06/19 02:13:30;;;;;;;155.55;72.15;;;;;;;22.12;44.15;96004.13;2065280;28;20198;-56
2022/06/19 02:14:33;;;;;;;166.32;88.55;;;;;;;22.26;44.27;96016.84;2065252;28;20198;-56
2022/06/19 02:15:36;;;;;;;177.32;95.50;;;;;;;22.19;43.93;96007.81;2068827;28;20196;-56
2022/06/19 02:16:46;;;;;;;168.27;92.57;;;;;;;22.16;44.36;96000.16;2065178;28;20202;-56
2022/06/19 02:17:52;;;;;;;183.63;111.07;;;;;;;22.28;44.21;96014.88;2064732;28;20226;-55
2022/06/19 02:18:54;;;;;;;166.52;90.38;;;;;;;22.27;44.36;96015.00;2068811;28;20695;-56
2022/06/19 02:19:56;;;;;;;171.23;94.22;;;;;;;22.25;44.47;96009.03;2071416;28;20224;-55
2022/06/19 02:20:57;;;;;;;187.40;120.43;;;;;;;22.29;44.26;96011.19;2067420;28;20204;-55
2022/06/19 02:21:59;;;;;;;188.93;120.55;;;;;;;22.37;43.61;96009.63;2069322;28;20201;-55
2022/06/19 02:23:02;;;;;;;187.90;125.03;;;;;;;22.38;43.60;96014.78;2069297;28;20198;-55
2022/06/19 02:24:05;;;;;;;207.15;142.57;;;;;;;22.30;43.56;95988.94;2069324;28;20619;-55
2022/06/19 02:25:08;;;;;;;199.15;140.75;;;;;;;22.45;43.15;96009.69;2071316;28;20245;-56
2022/06/19 02:26:11;;;;;;;193.90;152.00;;;;;;;22.54;43.08;96008.72;2070912;28;20198;-55
2022/06/19 02:27:14;;;;;;;194.45;144.00;;;;;;;22.50;43.44;96010.03;2070019;28;20817;-56
2022/06/19 02:28:20;;;;;;;201.75;157.30;;;;;;;22.49;43.15;96008.38;2068881;28;20195;-55
2022/06/19 02:29:21;;;;;;;195.60;146.60;;;;;;;22.54;43.14;96008.72;2068519;28;20557;-56
2022/06/19 02:30:24;;;;;;;194.60;149.82;;;;;;;22.51;43.30;96006.38;2067280;28;20208;-55
2022/06/19 02:31:27;;;;;;;199.63;141.40;;;;;;;22.48;43.59;96010.19;2067473;28;20680;-56
2022/06/19 02:32:36;;;;;;;190.05;137.40;;;;;;;22.47;43.35;96013.84;2070000;28;20229;-56
2022/06/19 02:33:44;;;;;;;192.02;150.40;;;;;;;22.44;43.61;96006.16;2066820;28;20197;-56
2022/06/19 02:34:46;;;;;;;197.20;155.30;;;;;;;22.37;43.81;96005.13;2068043;28;20205;-56
2022/06/19 02:35:47;;;;;;;191.65;142.93;;;;;;;22.28;44.05;96001.59;2069882;28;20201;-56
2022/06/19 02:36:56;;;;;;;199.32;154.88;;;;;;;22.17;44.37;95983.22;2070660;28;20210;-58
2022/06/19 02:37:58;;;;;;;189.38;140.07;;;;;;;22.28;43.95;96003.38;2064863;28;20237;-58
2022/06/19 02:39:14;;;;;;;212.02;141.15;;;;;;;22.16;44.12;95982.38;2065012;28;20199;-57
2022/06/19 02:40:53;;;;;;;181.38;113.40;;;;;;;22.23;44.12;95995.06;2069298;28;20457;-58
2022/06/19 02:42:22;;;;;;;161.73;85.50;;;;;;;22.18;44.27;96001.69;2064671;28;20202;-58
2022/06/19 02:43:28;;;;;;;179.60;121.65;;;;;;;22.23;44.56;96011.00;2065920;28;20217;-58
2022/06/19 02:44:33;;;;;;;182.30;124.80;;;;;;;22.17;45.00;96009.81;2068535;28;20195;-57
2022/06/19 02:45:38;;;;;;;182.20;109.80;;;;;;;22.12;45.04;96004.13;2069603;28;20260;-57
2022/06/19 02:46:39;;;;;;;180.15;111.28;;;;;;;22.10;45.21;96000.78;2071288;28;20194;-58
2022/06/19 02:47:41;;;;;;;165.55;100.13;;;;;;;21.83;45.43;95978.69;2065839;28;20230;-57
2022/06/19 02:48:43;;;;;;;165.75;87.40;;;;;;;21.08;45.33;95852.44;2064928;28;20546;-58
2022/06/19 02:49:45;;;;;;;153.02;69.22;;;;;;;21.95;45.39;95996.06;2064953;28;20613;-57
2022/06/19 02:50:48;;;;;;;163.65;77.93;;;;;;;21.87;45.45;95992.50;2066439;28;20193;-58
2022/06/19 02:51:50;;;;;;;158.18;74.90;;;;;;;21.87;45.57;95998.63;2070662;28;20190;-57
2022/06/19 02:52:51;;;;;;;156.85;81.57;;;;;;;21.88;45.84;95997.66;2064364;28;20218;-57
2022/06/19 02:53:53;;;;;;;158.38;70.32;;;;;;;21.90;45.32;95993.00;2064716;28;20201;-57
2022/06/19 02:54:56;;;;;;;156.85;70.63;;;;;;;21.88;45.09;96000.31;2065014;28;20214;-58
2022/06/19 02:55:58;;;;;;;150.75;72.72;;;;;;;21.84;45.52;95996.31;2064667;28;20195;-58
2022/06/19 02:56:59;;;;;;;148.95;75.03;;;;;;;21.81;46.04;95991.28;2064419;28;20236;-57
2022/06/19 02:58:01;;;;;;;173.68;111.43;;;;;;;21.76;46.53;95989.06;2068575;28;20190;-57
2022/06/19 02:59:02;;;;;;;162.13;93.18;;;;;;;21.68;47.06;95989.84;2068780;28;20226;-58
2022/06/19 03:00:07;;;;;;;168.88;88.35;;;;;;;21.59;46.67;95982.81;2070488;28;20224;-58
2022/06/19 03:01:08;;;;;;;158.98;70.70;;;;;;;21.62;46.23;95992.28;2067877;28;20198;-58
2022/06/19 03:02:14;;;;;;;147.75;67.32;;;;;;;21.62;46.95;95986.97;2067000;28;20197;-58
2022/06/19 03:03:36;;;;;;;163.75;77.53;;;;;;;21.59;47.00;95988.13;2067602;28;20198;-58
2022/06/19 03:04:47;;;;;;;153.00;69.50;;;;;;;21.56;46.58;95985.78;2069580;28;20193;-58
2022/06/19 03:05:48;;;;;;;156.85;78.97;;;;;;;21.63;46.14;95980.69;2068914;28;20321;-58
2022/06/19 03:06:51;;;;;;;151.65;72.78;;;;;;;21.67;45.92;95988.22;2064812;28;20672;-58
2022/06/19 03:07:52;;;;;;;164.05;71.57;;;;;;;21.68;45.44;95987.19;2064514;28;20226;-58
2022/06/19 03:08:54;;;;;;;157.85;80.95;;;;;;;21.72;45.84;95978.94;2067385;28;20202;-58
2022/06/19 03:09:56;;;;;;;176.48;110.25;;;;;;;21.51;46.84;95974.75;2068712;28;20215;-57
2022/06/19 03:10:57;;;;;;;184.90;112.25;;;;;;;21.53;46.55;95976.28;2068381;28;20198;-57
2022/06/19 03:11:59;;;;;;;173.68;102.82;;;;;;;21.52;46.80;95979.06;2069797;28;20213;-58
2022/06/19 03:13:00;;;;;;;171.10;107.93;;;;;;;21.54;46.97;95980.56;2067334;28;20202;-58
2022/06/19 03:14:02;;;;;;;162.45;102.85;;;;;;;21.51;47.41;95974.75;2068585;28;20217;-58
2022/06/19 03:15:04;;;;;;;175.05;113.60;;;;;;;21.56;47.05;95980.47;2069432;28;20206;-58
2022/06/19 03:16:07;;;;;;;165.63;100.10;;;;;;;21.51;47.13;95975.56;2068118;28;20712;-57
2022/06/19 03:17:17;;;;;;;155.75;83.75;;;;;;;21.43;46.40;95959.56;2069578;28;20288;-58
2022/06/19 03:18:22;;;;;;;175.77;114.13;;;;;;;21.49;46.99;95963.44;2069521;28;20232;-58
2022/06/19 03:19:23;;;;;;;171.00;106.82;;;;;;;21.48;47.39;95980.34;2069947;28;20205;-57
2022/06/19 03:20:26;;;;;;;159.07;95.22;;;;;;;21.51;47.53;95970.28;2069792;28;20205;-58
2022/06/19 03:21:28;;;;;;;167.55;88.53;;;;;;;21.57;46.71;95973.31;2068203;28;20669;-58
2022/06/19 03:22:29;;;;;;;167.15;94.55;;;;;;;21.54;47.06;95967.28;2064365;28;20762;-58
2022/06/19 03:23:31;;;;;;;179.27;100.25;;;;;;;21.46;46.25;95947.81;2064737;28;20199;-58
2022/06/19 03:24:33;;;;;;;173.63;95.47;;;;;;;21.69;46.00;95970.28;2066721;28;20248;-58
2022/06/19 03:25:34;;;;;;;169.13;106.32;;;;;;;21.78;45.95;95967.69;2067681;28;20202;-58
2022/06/19 03:26:36;;;;;;;179.80;95.18;;;;;;;21.86;45.61;95973.03;2067247;28;20198;-58
2022/06/19 03:27:37;;;;;;;171.48;86.07;;;;;;;21.77;45.28;95948.25;2061457;28;20232;-58
2022/06/19 03:28:39;;;;;;;171.52;97.32;;;;;;;21.84;45.35;95953.78;2073684;28;20189;-57
2022/06/19 03:29:41;;;;;;;162.10;79.18;;;;;;;21.95;45.26;95971.28;2067576;28;20209;-58
2022/06/19 03:30:42;;;;;;;170.02;91.82;;;;;;;21.85;44.99;95952.78;2070909;28;20208;-57
2022/06/19 03:31:44;;;;;;;177.65;97.13;;;;;;;21.89;45.08;95948.84;2070394;28;20498;-57
2022/06/19 03:32:45;;;;;;;185.60;113.30;;;;;;;21.97;45.19;95962.16;2067544;28;20230;-58
2022/06/19 03:33:47;;;;;;;169.68;112.03;;;;;;;21.92;45.98;95956.47;2068488;28;20190;-58
2022/06/19 03:34:48;;;;;;;168.15;106.88;;;;;;;21.74;46.35;95939.75;2068618;28;20197;-57
2022/06/19 03:35:52;;;;;;;188.88;118.15;;;;;;;21.87;46.33;95957.97;2070370;28;20197;-58
2022/06/19 03:36:53;;;;;;;189.30;113.53;;;;;;;21.85;46.02;95952.78;2068180;28;20201;-58
2022/06/19 03:37:55;;;;;;;168.85;105.70;;;;;;;21.89;46.15;95953.31;2054056;28;20704;-57
2022/06/19 03:38:56;;;;;;;176.65;104.65;;;;;;;21.91;46.06;95954.00;2063867;28;20221;-57
2022/06/19 03:39:58;;;;;;;163.88;84.22;;;;;;;21.94;45.33;95961.63;2066152;28;20654;-58
2022/06/19 03:40:59;;;;;;;185.90;101.70;;;;;;;21.91;45.81;95948.69;2064482;28;20206;-57
2022/06/19 03:42:01;;;;;;;166.23;94.95;;;;;;;22.06;45.00;95955.06;2064123;28;20190;-57
2022/06/19 03:43:03;;;;;;;166.77;101.40;;;;;;;22.09;44.68;95951.28;2068152;28;20198;-58
2022/06/19 03:44:05;;;;;;;185.57;101.47;;;;;;;22.13;44.70;95957.94;2069127;28;20590;-58
2022/06/19 03:45:08;;;;;;;171.38;102.90;;;;;;;22.14;44.73;95956.94;2069801;28;20656;-58
2022/06/19 03:46:14;;;;;;;174.38;104.78;;;;;;;22.17;44.80;95954.00;2067655;28;20205;-58
2022/06/19 03:47:21;;;;;;;184.82;109.07;;;;;;;22.08;44.77;95945.13;2068080;28;20241;-57
2022/06/19 03:48:24;;;;;;;195.55;119.00;;;;;;;22.13;45.43;95957.94;2068928;28;20194;-58
2022/06/19 03:49:27;;;;;;;180.02;118.95;;;;;;;22.08;45.65;95960.22;2069122;28;20193;-57
2022/06/19 03:50:28;;;;;;;172.93;114.53;;;;;;;22.05;45.64;95950.75;2067803;28;20676;-57
2022/06/19 03:51:30;;;;;;;169.75;89.80;;;;;;;22.13;45.43;95958.78;2068663;28;20189;-57
2022/06/19 03:52:32;;;;;;;179.20;90.18;;;;;;;22.14;44.86;95956.94;2070129;28;20218;-58
2022/06/19 03:53:34;;;;;;;158.10;81.43;;;;;;;22.18;44.63;95960.94;2067442;28;20202;-58
2022/06/19 03:54:35;;;;;;;150.93;73.43;;;;;;;22.20;44.67;95958.97;2064463;28;20671;-58
2022/06/19 03:55:37;;;;;;;160.27;70.40;;;;;;;22.11;44.74;95942.16;2064441;28;20201;-58
2022/06/19 03:56:38;;;;;;;166.68;81.05;;;;;;;22.23;44.95;95961.31;2065977;28;20535;-57
2022/06/19 03:57:44;;;;;;;152.70;67.55;;;;;;;22.24;44.57;95960.31;2068016;28;20233;-58
2022/06/19 03:58:46;;;;;;;166.15;75.80;;;;;;;22.26;44.42;95955.69;2068014;28;20217;-58
2022/06/19 03:59:48;;;;;;;173.07;85.15;;;;;;;22.25;45.03;95963.84;2067712;28;20206;-58
2022/06/19 04:00:49;;;;;;;158.27;73.60;;;;;;;22.22;45.20;95964.13;2067537;28;20222;-58
2022/06/19 04:01:51;;;;;;;160.73;84.82;;;;;;;22.09;45.25;95959.25;2064544;28;20198;-57
2022/06/19 04:02:52;;;;;;;171.73;100.03;;;;;;;22.15;45.90;95963.94;2064174;28;20218;-57
2022/06/19 04:03:55;;;;;;;164.35;96.50;;;;;;;22.14;47.26;95964.91;2069923;28;20198;-58
2022/06/19 04:04:57;;;;;;;164.80;102.55;;;;;;;21.78;47.72;95926.00;2068825;28;20230;-57
2022/06/19 04:05:59;;;;;;;169.55;97.75;;;;;;;21.78;47.81;95930.50;2067328;28;20214;-57
2022/06/19 04:07:01;;;;;;;161.45;86.63;;;;;;;21.99;48.02;95949.56;2066928;28;20210;-58
2022/06/19 04:08:03;;;;;;;164.05;90.65;;;;;;;22.01;47.92;95944.09;2067516;28;20205;-58
2022/06/19 04:09:07;;;;;;;160.38;95.93;;;;;;;21.85;47.22;95928.84;2068876;28;20532;-57
2022/06/19 04:10:10;;;;;;;164.10;95.05;;;;;;;22.03;47.44;95952.75;2070943;28;20206;-58
2022/06/19 04:11:16;;;;;;;158.32;82.95;;;;;;;22.05;47.88;95949.94;2064295;28;20213;-58
2022/06/19 04:12:18;;;;;;;150.68;75.65;;;;;;;21.98;47.83;95933.78;2063914;28;20704;-57
2022/06/19 04:13:19;;;;;;;167.02;91.22;;;;;;;22.01;47.97;95944.09;2067336;28;20198;-58
2022/06/19 04:14:20;;;;;;;157.75;84.88;;;;;;;22.10;48.12;95952.94;2068868;28;20202;-57
2022/06/19 04:15:22;;;;;;;163.15;87.70;;;;;;;21.95;48.52;95931.41;2064329;28;20199;-58
2022/06/19 04:16:29;;;;;;;160.68;86.55;;;;;;;22.07;48.38;95950.59;2064148;28;20202;-57
2022/06/19 04:17:34;;;;;;;156.88;89.00;;;;;;;22.12;48.27;95956.28;2068196;28;20226;-58
2022/06/19 04:18:35;;;;;;;163.85;80.43;;;;;;;22.16;47.71;95958.47;2067318;28;20813;-58
2022/06/19 04:19:37;;;;;;;169.27;89.13;;;;;;;22.10;48.19;95953.75;2067683;28;20229;-57
2022/06/19 04:20:38;;;;;;;152.20;83.85;;;;;;;21.97;48.06;95938.25;2068409;28;20642;-58
2022/06/19 04:21:43;;;;;;;169.70;89.78;;;;;;;22.15;48.22;95967.41;2069541;28;20532;-57
2022/06/19 04:22:45;;;;;;;165.95;89.30;;;;;;;22.15;48.39;95967.41;2073060;28;20308;-57
2022/06/19 04:23:49;;;;;;;160.82;87.60;;;;;;;21.99;48.88;95935.41;2073177;28;20216;-57
2022/06/19 04:24:51;;;;;;;157.88;86.25;;;;;;;22.16;48.91;95961.13;2065322;28;20201;-57
2022/06/19 04:25:53;;;;;;;164.40;95.78;;;;;;;22.13;49.42;95968.56;2066374;28;20195;-57
2022/06/19 04:26:54;;;;;;;219.27;182.63;;;;;;;22.05;49.61;95944.59;2071285;28;20855;-57
2022/06/19 04:27:56;;;;;;;215.45;172.88;;;;;;;22.16;49.71;95968.28;2058758;28;20244;-58
2022/06/19 04:28:57;;;;;;;162.73;83.05;;;;;;;22.09;49.81;95967.22;2068144;28;20774;-58
2022/06/19 04:29:59;;;;;;;166.45;95.93;;;;;;;22.10;49.64;95964.41;2063497;28;20198;-58
2022/06/19 04:31:00;;;;;;;157.60;73.03;;;;;;;22.15;49.37;95967.41;2064127;28;20600;-58
2022/06/19 04:32:03;;;;;;;169.13;86.53;;;;;;;22.17;49.40;95969.94;2069169;28;20193;-58
2022/06/19 04:33:04;;;;;;;197.73;154.55;;;;;;;22.25;49.60;95966.50;2067647;28;20198;-58
2022/06/19 04:34:06;;;;;;;220.90;195.32;;;;;;;22.20;50.25;95972.28;2068392;28;20653;-58
2022/06/19 04:35:08;;;;;;;261.20;233.68;;;;;;;22.17;50.64;95976.09;2070647;28;20202;-57
2022/06/19 04:36:12;;;;;;;227.90;174.75;;;;;;;22.23;50.20;95965.81;2068073;28;20207;-57
2022/06/19 04:37:14;;;;;;;236.30;210.40;;;;;;;22.28;50.20;95966.16;2066231;28;20190;-58
2022/06/19 04:38:16;;;;;;;204.68;161.50;;;;;;;22.31;49.91;95969.34;2066249;28;20742;-57
2022/06/19 04:39:18;;;;;;;216.07;184.38;;;;;;;22.21;50.21;95950.03;2068563;28;20333;-58
2022/06/19 04:40:20;;;;;;;192.25;135.32;;;;;;;22.35;49.91;95967.22;2066617;28;20198;-58
2022/06/19 04:41:28;;;;;;;169.43;91.50;;;;;;;22.32;49.88;95947.09;2066529;28;20199;-57
2022/06/19 04:42:30;;;;;;;157.73;71.78;;;;;;;22.43;49.65;95964.59;2068564;28;20585;-58
2022/06/19 04:43:31;;;;;;;155.00;75.57;;;;;;;22.43;49.15;95955.81;2066963;28;20202;-57
2022/06/19 04:44:36;;;;;;;144.35;60.92;;;;;;;22.50;48.82;95956.84;2069637;28;20336;-58
2022/06/19 04:45:38;;;;;;;147.43;69.72;;;;;;;22.55;49.21;95959.84;2065927;28;20248;-58
2022/06/19 04:46:40;;;;;;;158.30;84.93;;;;;;;22.56;49.33;95961.50;2068215;28;20195;-58
2022/06/19 04:47:42;;;;;;;157.20;74.70;;;;;;;22.58;49.03;95964.03;2067576;28;20232;-58
2022/06/19 04:48:43;;;;;;;157.70;71.70;;;;;;;22.59;49.21;95969.19;2066431;28;20566;-57
2022/06/19 04:49:45;;;;;;;152.07;74.32;;;;;;;22.66;49.12;95964.03;2067760;28;20677;-57